Terminal Aerodrome Forecast
Issued by NWS Duluth, MN

Home | Current Version | Previous Version | Text Only | Print | Product List | Glossary On
Versions: 1 2 3 4 5 6 7 8 9 10 11 12 13 14 15 16 17 18 19 20 21 22 23 24 25 26 27
000
FTUS43 KDLH 182336
TAFINL
TAF
KINL 182336Z 1900/1924 28006KT P6SM FEW110 BKN150
     FM190500 29004KT 6SM BR SCT060 BKN140
     FM190900 VRB03KT 5SM BR SCT010 BKN070
      TEMPO 1910/1914 1 1/2SM BR SCT007
     FM191500 10005KT P6SM SCT007 SCT070
     FM191800 10007KT P6SM BKN120=

USA.gov is the U.S. government's official web portal to all federal, state and local government web resources and services.